sensor_id;sensor_type;location;lat;lon;timestamp;temperature;humidity
20698;DHT22;10508;50.956;4.640;2023-12-20T05:50:34;6.30;99.90
20698;DHT22;10508;50.956;4.640;2023-12-20T05:53:00;6.20;99.90
20698;DHT22;10508;50.956;4.640;2023-12-20T05:55:26;6.20;99.90
20698;DHT22;10508;50.956;4.640;2023-12-20T05:57:52;6.20;99.90
20698;DHT22;10508;50.956;4.640;2023-12-20T06:00:18;6.20;99.90
20698;DHT22;10508;50.956;4.640;2023-12-20T06:02:44;6.20;99.90
20698;DHT22;10508;50.956;4.640;2023-12-20T06:05:09;6.20;99.90
20698;DHT22;10508;50.956;4.640;2023-12-20T06:07:35;6.20;99.90
20698;DHT22;10508;50.956;4.640;2023-12-20T06:10:01;6.20;99.90
20698;DHT22;10508;50.956;4.640;2023-12-20T06:12:26;6.20;99.90
20698;DHT22;10508;50.956;4.640;2023-12-20T06:14:54;6.30;99.90
20698;DHT22;10508;50.956;4.640;2023-12-20T06:17:20;6.30;99.90
20698;DHT22;10508;50.956;4.640;2023-12-20T06:19:45;6.40;99.90
20698;DHT22;10508;50.956;4.640;2023-12-20T06:22:14;6.40;99.90
20698;DHT22;10508;50.956;4.640;2023-12-20T06:24:40;6.40;99.90
20698;DHT22;10508;50.956;4.640;2023-12-20T06:27:05;6.40;99.90
20698;DHT22;10508;50.956;4.640;2023-12-20T06:29:31;6.40;99.90
20698;DHT22;10508;50.956;4.640;2023-12-20T06:31:57;6.50;99.90
20698;DHT22;10508;50.956;4.640;2023-12-20T06:34:23;6.50;99.90
20698;DHT22;10508;50.956;4.640;2023-12-20T06:36:51;6.50;99.90
20698;DHT22;10508;50.956;4.640;2023-12-20T06:39:16;6.50;99.90
20698;DHT22;10508;50.956;4.640;2023-12-20T06:41:42;6.40;99.90
20698;DHT22;10508;50.956;4.640;2023-12-20T06:44:08;6.50;99.90
20698;DHT22;10508;50.956;4.640;2023-12-20T06:46:34;6.40;99.90
20698;DHT22;10508;50.956;4.640;2023-12-20T06:49:00;6.40;99.90
20698;DHT22;10508;50.956;4.640;2023-12-20T06:51:26;6.40;99.90
20698;DHT22;10508;50.956;4.640;2023-12-20T06:53:52;6.40;99.90
20698;DHT22;10508;50.956;4.640;2023-12-20T06:56:18;6.30;99.90
20698;DHT22;10508;50.956;4.640;2023-12-20T06:58:44;6.30;99.90
20698;DHT22;10508;50.956;4.640;2023-12-20T07:01:13;6.30;99.90
20698;DHT22;10508;50.956;4.640;2023-12-20T07:03:38;6.20;99.90
20698;DHT22;10508;50.956;4.640;2023-12-20T07:06:05;6.30;99.90
20698;DHT22;10508;50.956;4.640;2023-12-20T07:08:31;6.30;99.90
20698;DHT22;10508;50.956;4.640;2023-12-20T07:10:56;6.30;99.90
20698;DHT22;10508;50.956;4.640;2023-12-20T07:13:22;6.20;99.90
20698;DHT22;10508;50.956;4.640;2023-12-20T07:15:48;6.20;99.90
20698;DHT22;10508;50.956;4.640;2023-12-20T07:18:14;6.20;99.90
20698;DHT22;10508;50.956;4.640;2023-12-20T07:20:40;6.10;99.90
20698;DHT22;10508;50.956;4.640;2023-12-20T07:23:05;6.20;99.90
20698;DHT22;10508;50.956;4.640;2023-12-20T07:25:31;6.20;99.90
20698;DHT22;10508;50.956;4.640;2023-12-20T07:27:58;6.20;99.90
20698;DHT22;10508;50.956;4.640;2023-12-20T07:30:24;6.20;99.90
20698;DHT22;10508;50.956;4.640;2023-12-20T07:32:49;6.20;99.90
20698;DHT22;10508;50.956;4.640;2023-12-20T07:35:18;6.20;99.90
20698;DHT22;10508;50.956;4.640;2023-12-20T07:37:44;6.10;99.90
20698;DHT22;10508;50.956;4.640;2023-12-20T07:40:10;6.10;99.90
20698;DHT22;10508;50.956;4.640;2023-12-20T07:42:36;6.10;99.90
20698;DHT22;10508;50.956;4.640;2023-12-20T07:45:03;6.10;99.90
20698;DHT22;10508;50.956;4.640;2023-12-20T07:47:28;6.10;99.90
20698;DHT22;10508;50.956;4.640;2023-12-20T07:49:54;6.10;99.90
20698;DHT22;10508;50.956;4.640;2023-12-20T07:52:20;6.10;99.90
20698;DHT22;10508;50.956;4.640;2023-12-20T07:54:48;6.10;99.90
20698;DHT22;10508;50.956;4.640;2023-12-20T07:57:13;6.00;99.90
20698;DHT22;10508;50.956;4.640;2023-12-20T07:59:39;6.00;99.90
20698;DHT22;10508;50.956;4.640;2023-12-20T08:02:05;5.90;99.90
20698;DHT22;10508;50.956;4.640;2023-12-20T08:04:32;6.00;99.90
20698;DHT22;10508;50.956;4.640;2023-12-20T08:06:58;6.00;99.90
20698;DHT22;10508;50.956;4.640;2023-12-20T08:09:23;6.00;99.90
20698;DHT22;10508;50.956;4.640;2023-12-20T08:11:49;5.90;99.90
20698;DHT22;10508;50.956;4.640;2023-12-20T08:14:15;6.00;99.90
20698;DHT22;10508;50.956;4.640;2023-12-20T08:16:41;6.00;99.90
20698;DHT22;10508;50.956;4.640;2023-12-20T08:19:07;6.10;99.90
20698;DHT22;10508;50.956;4.640;2023-12-20T08:21:33;6.00;99.90
20698;DHT22;10508;50.956;4.640;2023-12-20T08:23:59;6.10;99.90
20698;DHT22;10508;50.956;4.640;2023-12-20T08:26:26;6.10;99.90
20698;DHT22;10508;50.956;4.640;2023-12-20T08:28:51;6.20;99.90
20698;DHT22;10508;50.956;4.640;2023-12-20T08:31:18;6.30;99.90
20698;DHT22;10508;50.956;4.640;2023-12-20T08:33:44;6.30;99.90
20698;DHT22;10508;50.956;4.640;2023-12-20T08:36:11;6.40;99.90
20698;DHT22;10508;50.956;4.640;2023-12-20T08:38:36;6.50;99.90
20698;DHT22;10508;50.956;4.640;2023-12-20T08:41:02;6.50;99.90
20698;DHT22;10508;50.956;4.640;2023-12-20T08:43:33;6.50;99.90
20698;DHT22;10508;50.956;4.640;2023-12-20T08:45:59;6.50;99.90
20698;DHT22;10508;50.956;4.640;2023-12-20T08:48:25;6.50;99.90
20698;DHT22;10508;50.956;4.640;2023-12-20T08:50:51;6.50;99.90
20698;DHT22;10508;50.956;4.640;2023-12-20T08:53:18;6.60;99.90
20698;DHT22;10508;50.956;4.640;2023-12-20T08:55:44;6.60;99.90
20698;DHT22;10508;50.956;4.640;2023-12-20T08:58:10;6.60;99.90
20698;DHT22;10508;50.956;4.640;2023-12-20T09:00:36;6.50;99.90
20698;DHT22;10508;50.956;4.640;2023-12-20T09:03:02;6.60;99.90
20698;DHT22;10508;50.956;4.640;2023-12-20T09:05:28;6.60;99.90
20698;DHT22;10508;50.956;4.640;2023-12-20T09:07:54;6.70;99.90
20698;DHT22;10508;50.956;4.640;2023-12-20T09:10:19;6.60;99.90
20698;DHT22;10508;50.956;4.640;2023-12-20T09:12:51;6.70;99.90
20698;DHT22;10508;50.956;4.640;2023-12-20T09:15:23;6.80;99.90
20698;DHT22;10508;50.956;4.640;2023-12-20T09:17:48;6.80;99.90
20698;DHT22;10508;50.956;4.640;2023-12-20T09:20:14;6.80;99.90
20698;DHT22;10508;50.956;4.640;2023-12-20T09:22:40;6.80;99.90
20698;DHT22;10508;50.956;4.640;2023-12-20T09:25:07;6.90;99.90
20698;DHT22;10508;50.956;4.640;2023-12-20T09:27:33;6.90;99.90
20698;DHT22;10508;50.956;4.640;2023-12-20T09:29:59;6.90;99.90
20698;DHT22;10508;50.956;4.640;2023-12-20T09:32:24;6.90;99.90
20698;DHT22;10508;50.956;4.640;2023-12-20T09:34:50;7.00;99.90
20698;DHT22;10508;50.956;4.640;2023-12-20T09:37:16;7.00;99.90
20698;DHT22;10508;50.956;4.640;2023-12-20T09:39:41;7.00;99.90
20698;DHT22;10508;50.956;4.640;2023-12-20T09:42:07;7.10;99.90
20698;DHT22;10508;50.956;4.640;2023-12-20T09:44:34;7.20;99.90
20698;DHT22;10508;50.956;4.640;2023-12-20T09:47:03;7.20;99.90
20698;DHT22;10508;50.956;4.640;2023-12-20T09:49:30;7.30;99.90
20698;DHT22;10508;50.956;4.640;2023-12-20T09:51:56;7.40;99.90
20698;DHT22;10508;50.956;4.640;2023-12-20T09:54:23;7.80;99.90
20698;DHT22;10508;50.956;4.640;2023-12-20T09:56:49;7.90;99.90
20698;DHT22;10508;50.956;4.640;2023-12-20T09:59:15;7.90;99.90
20698;DHT22;10508;50.956;4.640;2023-12-20T10:01:42;7.90;99.90
20698;DHT22;10508;50.956;4.640;2023-12-20T10:04:09;7.80;99.90
20698;DHT22;10508;50.956;4.640;2023-12-20T10:06:44;7.80;99.90
20698;DHT22;10508;50.956;4.640;2023-12-20T10:09:11;7.80;99.90
20698;DHT22;10508;50.956;4.640;2023-12-20T10:11:40;7.80;99.90
20698;DHT22;10508;50.956;4.640;2023-12-20T10:14:07;7.80;99.90
20698;DHT22;10508;50.956;4.640;2023-12-20T10:16:33;7.80;99.90
20698;DHT22;10508;50.956;4.640;2023-12-20T10:19:00;7.80;99.90
20698;DHT22;10508;50.956;4.640;2023-12-20T10:21:26;7.90;99.90
20698;DHT22;10508;50.956;4.640;2023-12-20T10:23:54;7.90;99.90
20698;DHT22;10508;50.956;4.640;2023-12-20T10:26:20;7.90;99.90
20698;DHT22;10508;50.956;4.640;2023-12-20T10:28:49;8.00;99.90
20698;DHT22;10508;50.956;4.640;2023-12-20T10:31:31;8.00;99.90
20698;DHT22;10508;50.956;4.640;2023-12-20T10:33:58;8.00;99.90
20698;DHT22;10508;50.956;4.640;2023-12-20T10:36:30;8.00;99.90
20698;DHT22;10508;50.956;4.640;2023-12-20T10:38:57;8.00;99.90
20698;DHT22;10508;50.956;4.640;2023-12-20T10:41:26;8.00;99.90
20698;DHT22;10508;50.956;4.640;2023-12-20T10:43:58;7.90;99.90
20698;DHT22;10508;50.956;4.640;2023-12-20T10:46:30;7.90;99.90
20698;DHT22;10508;50.956;4.640;2023-12-20T10:48:58;8.00;99.90
20698;DHT22;10508;50.956;4.640;2023-12-20T10:51:25;8.00;99.90
20698;DHT22;10508;50.956;4.640;2023-12-20T10:53:55;8.10;99.90
20698;DHT22;10508;50.956;4.640;2023-12-20T10:56:22;8.20;99.90
20698;DHT22;10508;50.956;4.640;2023-12-20T10:58:49;8.20;99.90
20698;DHT22;10508;50.956;4.640;2023-12-20T11:01:16;8.30;99.90
20698;DHT22;10508;50.956;4.640;2023-12-20T11:03:49;8.30;99.90
20698;DHT22;10508;50.956;4.640;2023-12-20T11:06:33;8.30;99.90
20698;DHT22;10508;50.956;4.640;2023-12-20T11:09:04;8.30;99.90
20698;DHT22;10508;50.956;4.640;2023-12-20T11:14:49;8.30;99.90
20698;DHT22;10508;50.956;4.640;2023-12-20T11:17:15;8.30;99.90
20698;DHT22;10508;50.956;4.640;2023-12-20T11:22:22;8.40;99.90
20698;DHT22;10508;50.956;4.640;2023-12-20T11:24:48;8.30;99.90
20698;DHT22;10508;50.956;4.640;2023-12-20T11:27:14;8.30;99.90
20698;DHT22;10508;50.956;4.640;2023-12-20T11:29:41;8.30;99.90
20698;DHT22;10508;50.956;4.640;2023-12-20T11:37:36;8.30;99.90
20698;DHT22;10508;50.956;4.640;2023-12-20T11:40:05;8.40;99.90
20698;DHT22;10508;50.956;4.640;2023-12-20T11:42:41;8.40;99.90
20698;DHT22;10508;50.956;4.640;2023-12-20T11:45:11;8.40;99.90
20698;DHT22;10508;50.956;4.640;2023-12-20T11:47:37;8.30;99.90
20698;DHT22;10508;50.956;4.640;2023-12-20T11:50:03;8.30;99.90
20698;DHT22;10508;50.956;4.640;2023-12-20T11:52:30;8.30;99.90
20698;DHT22;10508;50.956;4.640;2023-12-20T11:54:56;8.40;99.90
20698;DHT22;10508;50.956;4.640;2023-12-20T11:57:22;8.40;99.90
20698;DHT22;10508;50.956;4.640;2023-12-20T11:59:48;8.40;99.90
20698;DHT22;10508;50.956;4.640;2023-12-20T12:02:13;8.40;99.90
20698;DHT22;10508;50.956;4.640;2023-12-20T12:04:42;8.40;99.90
20698;DHT22;10508;50.956;4.640;2023-12-20T12:07:07;8.50;99.90
20698;DHT22;10508;50.956;4.640;2023-12-20T12:09:34;8.50;99.90
20698;DHT22;10508;50.956;4.640;2023-12-20T12:12:00;8.50;99.90
20698;DHT22;10508;50.956;4.640;2023-12-20T12:14:26;8.50;99.90
20698;DHT22;10508;50.956;4.640;2023-12-20T12:16:52;8.50;99.90
20698;DHT22;10508;50.956;4.640;2023-12-20T12:19:22;8.60;99.90
20698;DHT22;10508;50.956;4.640;2023-12-20T12:21:49;8.60;99.90
20698;DHT22;10508;50.956;4.640;2023-12-20T12:24:16;8.60;99.90
20698;DHT22;10508;50.956;4.640;2023-12-20T12:26:50;8.60;99.90
20698;DHT22;10508;50.956;4.640;2023-12-20T12:29:16;8.60;99.90
20698;DHT22;10508;50.956;4.640;2023-12-20T12:31:42;8.60;99.90
20698;DHT22;10508;50.956;4.640;2023-12-20T12:34:08;8.60;99.90
20698;DHT22;10508;50.956;4.640;2023-12-20T12:36:34;8.60;99.90
20698;DHT22;10508;50.956;4.640;2023-12-20T12:39:17;8.60;99.90
20698;DHT22;10508;50.956;4.640;2023-12-20T12:41:43;8.60;99.90
20698;DHT22;10508;50.956;4.640;2023-12-20T12:44:09;8.70;99.90
20698;DHT22;10508;50.956;4.640;2023-12-20T12:46:35;8.80;99.90
20698;DHT22;10508;50.956;4.640;2023-12-20T12:49:00;8.70;99.90
20698;DHT22;10508;50.956;4.640;2023-12-20T12:51:26;8.80;99.90
20698;DHT22;10508;50.956;4.640;2023-12-20T12:53:52;8.80;99.90
20698;DHT22;10508;50.956;4.640;2023-12-20T12:56:18;8.80;99.90
20698;DHT22;10508;50.956;4.640;2023-12-20T12:58:44;8.80;99.90
20698;DHT22;10508;50.956;4.640;2023-12-20T13:01:10;8.80;99.90
20698;DHT22;10508;50.956;4.640;2023-12-20T13:03:36;8.80;99.90
20698;DHT22;10508;50.956;4.640;2023-12-20T13:06:01;8.80;99.90
20698;DHT22;10508;50.956;4.640;2023-12-20T13:08:29;8.90;99.90
20698;DHT22;10508;50.956;4.640;2023-12-20T13:10:55;8.80;99.90
20698;DHT22;10508;50.956;4.640;2023-12-20T13:13:22;8.80;99.90
20698;DHT22;10508;50.956;4.640;2023-12-20T13:15:48;8.80;99.90
20698;DHT22;10508;50.956;4.640;2023-12-20T13:18:18;8.90;99.90
20698;DHT22;10508;50.956;4.640;2023-12-20T13:20:44;8.90;99.90
20698;DHT22;10508;50.956;4.640;2023-12-20T13:23:10;8.90;99.90
20698;DHT22;10508;50.956;4.640;2023-12-20T13:25:36;8.90;99.90
20698;DHT22;10508;50.956;4.640;2023-12-20T13:28:02;9.00;99.90
20698;DHT22;10508;50.956;4.640;2023-12-20T13:30:30;9.00;99.90
20698;DHT22;10508;50.956;4.640;2023-12-20T13:32:56;9.00;99.90
20698;DHT22;10508;50.956;4.640;2023-12-20T13:35:22;9.00;99.90
20698;DHT22;10508;50.956;4.640;2023-12-20T13:37:47;9.10;99.90
20698;DHT22;10508;50.956;4.640;2023-12-20T13:40:13;9.00;99.90
20698;DHT22;10508;50.956;4.640;2023-12-20T13:42:58;9.00;99.90
20698;DHT22;10508;50.956;4.640;2023-12-20T13:45:23;9.00;99.90
20698;DHT22;10508;50.956;4.640;2023-12-20T13:47:50;9.00;99.90
20698;DHT22;10508;50.956;4.640;2023-12-20T13:50:16;9.00;99.90
20698;DHT22;10508;50.956;4.640;2023-12-20T13:52:42;9.10;99.90
20698;DHT22;10508;50.956;4.640;2023-12-20T13:55:09;9.10;99.90
20698;DHT22;10508;50.956;4.640;2023-12-20T13:57:35;9.10;99.90
20698;DHT22;10508;50.956;4.640;2023-12-20T14:00:04;9.00;99.90
20698;DHT22;10508;50.956;4.640;2023-12-20T14:02:30;9.00;99.90
20698;DHT22;10508;50.956;4.640;2023-12-20T14:04:56;9.10;99.90
20698;DHT22;10508;50.956;4.640;2023-12-20T14:07:21;9.00;99.90
20698;DHT22;10508;50.956;4.640;2023-12-20T14:09:47;9.00;99.90
20698;DHT22;10508;50.956;4.640;2023-12-20T14:12:14;9.00;99.90
20698;DHT22;10508;50.956;4.640;2023-12-20T14:14:40;9.10;99.90
20698;DHT22;10508;50.956;4.640;2023-12-20T14:17:05;9.10;99.90
20698;DHT22;10508;50.956;4.640;2023-12-20T14:19:32;9.20;99.90
20698;DHT22;10508;50.956;4.640;2023-12-20T14:21:58;9.20;99.90
20698;DHT22;10508;50.956;4.640;2023-12-20T14:24:45;9.20;99.90
20698;DHT22;10508;50.956;4.640;2023-12-20T14:27:11;9.20;99.90
20698;DHT22;10508;50.956;4.640;2023-12-20T14:29:37;9.30;99.90
20698;DHT22;10508;50.956;4.640;2023-12-20T14:32:03;9.20;99.90
20698;DHT22;10508;50.956;4.640;2023-12-20T14:34:30;9.20;99.90
20698;DHT22;10508;50.956;4.640;2023-12-20T21:09:19;9.90;99.90
20698;DHT22;10508;50.956;4.640;2023-12-20T21:11:45;10.00;99.90
20698;DHT22;10508;50.956;4.640;2023-12-20T21:14:10;10.00;99.90
20698;DHT22;10508;50.956;4.640;2023-12-20T21:16:36;9.90;99.90
20698;DHT22;10508;50.956;4.640;2023-12-20T21:19:02;10.00;99.90
20698;DHT22;10508;50.956;4.640;2023-12-20T21:21:28;10.00;99.90
20698;DHT22;10508;50.956;4.640;2023-12-20T21:23:53;9.90;99.90
20698;DHT22;10508;50.956;4.640;2023-12-20T21:26:19;10.00;99.90
20698;DHT22;10508;50.956;4.640;2023-12-20T21:28:45;9.90;99.90
20698;DHT22;10508;50.956;4.640;2023-12-20T21:31:13;9.90;99.90
20698;DHT22;10508;50.956;4.640;2023-12-20T21:33:38;9.90;99.90
20698;DHT22;10508;50.956;4.640;2023-12-20T21:36:06;9.90;99.90
20698;DHT22;10508;50.956;4.640;2023-12-20T21:38:32;9.90;99.90
20698;DHT22;10508;50.956;4.640;2023-12-20T21:40:57;9.90;99.90
20698;DHT22;10508;50.956;4.640;2023-12-20T21:43:23;9.90;99.90
20698;DHT22;10508;50.956;4.640;2023-12-20T21:45:49;9.90;99.90
20698;DHT22;10508;50.956;4.640;2023-12-20T21:48:14;9.90;99.90
20698;DHT22;10508;50.956;4.640;2023-12-20T21:50:40;9.90;99.90
20698;DHT22;10508;50.956;4.640;2023-12-20T21:53:06;9.90;99.90
20698;DHT22;10508;50.956;4.640;2023-12-20T21:55:39;9.90;99.90
20698;DHT22;10508;50.956;4.640;2023-12-20T21:58:04;9.90;99.90
20698;DHT22;10508;50.956;4.640;2023-12-20T22:00:30;9.90;99.90
20698;DHT22;10508;50.956;4.640;2023-12-20T22:02:56;9.90;99.90
20698;DHT22;10508;50.956;4.640;2023-12-20T22:05:23;10.00;99.90
20698;DHT22;10508;50.956;4.640;2023-12-20T22:07:50;9.90;99.90
20698;DHT22;10508;50.956;4.640;2023-12-20T22:10:17;9.90;99.90
20698;DHT22;10508;50.956;4.640;2023-12-20T22:12:43;9.90;99.90
20698;DHT22;10508;50.956;4.640;2023-12-20T22:15:10;9.90;99.90
20698;DHT22;10508;50.956;4.640;2023-12-20T22:17:36;9.80;99.90
20698;DHT22;10508;50.956;4.640;2023-12-20T22:20:03;9.80;99.90
20698;DHT22;10508;50.956;4.640;2023-12-20T22:22:29;9.90;99.90
20698;DHT22;10508;50.956;4.640;2023-12-20T22:24:55;9.80;99.90
20698;DHT22;10508;50.956;4.640;2023-12-20T22:27:20;9.90;99.90
20698;DHT22;10508;50.956;4.640;2023-12-20T22:29:46;9.90;99.90
20698;DHT22;10508;50.956;4.640;2023-12-20T22:32:12;9.90;99.90
20698;DHT22;10508;50.956;4.640;2023-12-20T22:34:39;9.90;99.90
20698;DHT22;10508;50.956;4.640;2023-12-20T22:37:04;9.90;99.90
20698;DHT22;10508;50.956;4.640;2023-12-20T22:39:30;9.90;99.90
20698;DHT22;10508;50.956;4.640;2023-12-20T22:41:56;9.90;99.90
20698;DHT22;10508;50.956;4.640;2023-12-20T22:44:21;10.00;99.90
20698;DHT22;10508;50.956;4.640;2023-12-20T22:46:47;10.00;99.90
20698;DHT22;10508;50.956;4.640;2023-12-20T22:49:13;10.00;99.90
20698;DHT22;10508;50.956;4.640;2023-12-20T22:51:38;10.00;99.90
20698;DHT22;10508;50.956;4.640;2023-12-20T22:54:04;10.00;99.90
20698;DHT22;10508;50.956;4.640;2023-12-20T22:56:31;10.00;99.90
20698;DHT22;10508;50.956;4.640;2023-12-20T22:58:56;10.00;99.90
20698;DHT22;10508;50.956;4.640;2023-12-20T23:01:22;10.10;99.90
20698;DHT22;10508;50.956;4.640;2023-12-20T23:03:48;10.00;99.90
20698;DHT22;10508;50.956;4.640;2023-12-20T23:06:14;10.00;99.90
20698;DHT22;10508;50.956;4.640;2023-12-20T23:08:39;10.10;99.90
20698;DHT22;10508;50.956;4.640;2023-12-20T23:11:05;10.10;99.90
20698;DHT22;10508;50.956;4.640;2023-12-20T23:13:31;10.10;99.90
20698;DHT22;10508;50.956;4.640;2023-12-20T23:15:56;10.10;99.90
20698;DHT22;10508;50.956;4.640;2023-12-20T23:18:23;10.10;99.90
20698;DHT22;10508;50.956;4.640;2023-12-20T23:20:49;10.20;99.90
20698;DHT22;10508;50.956;4.640;2023-12-20T23:23:15;10.20;99.90
20698;DHT22;10508;50.956;4.640;2023-12-20T23:25:41;10.10;99.90
20698;DHT22;10508;50.956;4.640;2023-12-20T23:28:07;10.10;99.90
20698;DHT22;10508;50.956;4.640;2023-12-20T23:30:32;10.20;99.90
20698;DHT22;10508;50.956;4.640;2023-12-20T23:32:58;10.10;99.90
20698;DHT22;10508;50.956;4.640;2023-12-20T23:35:25;10.20;99.90
20698;DHT22;10508;50.956;4.640;2023-12-20T23:38:09;10.20;99.90
20698;DHT22;10508;50.956;4.640;2023-12-20T23:40:35;10.20;99.90
20698;DHT22;10508;50.956;4.640;2023-12-20T23:43:00;10.20;99.90
20698;DHT22;10508;50.956;4.640;2023-12-20T23:45:28;10.40;99.90
20698;DHT22;10508;50.956;4.640;2023-12-20T23:50:21;10.10;99.90
20698;DHT22;10508;50.956;4.640;2023-12-20T23:52:47;10.20;99.90
20698;DHT22;10508;50.956;4.640;2023-12-20T23:55:14;10.30;99.90
